Time;durP1;ratioP1;P1;durP2;ratioP2;P2;SDS_P1;SDS_P2;PMS_P1;PMS_P2;Temp;Humidity;BMP_temperature;BMP_pressure;BME280_temperature;BME280_humidity;BME280_pressure;Samples;Min_cycle;Max_cycle;Signal;HPM_P1;HPM_P2
2022/11/14 00:01:01;;;;;;;;;;;;;;;8.13;82.62;101871.34;4852125;29;4946;-79
2022/11/14 00:03:28;;;;;;;;;;;;;;;8.09;82.84;101870.03;4859704;29;5495;-79
2022/11/14 00:05:54;;;;;;;;;;;;;;;8.10;82.57;101873.53;4861293;29;4863;-79
2022/11/14 00:08:21;;;;;;;;;;;;;;;8.06;82.87;101870.38;4865128;29;5817;-80
2022/11/14 00:10:47;;;;;;;;;;;;;;;8.05;82.82;101871.34;4863727;29;5432;-79
2022/11/14 00:13:14;;;;;;;;;;;;;;;8.03;82.88;101868.03;4850258;29;5209;-79
2022/11/14 00:15:40;;;;;;;;;;;;;;;8.09;82.84;101864.66;4866202;29;6132;-79
2022/11/14 00:18:07;;;;;;;;;;;;;;;8.06;82.99;101856.97;4865324;29;5291;-79
2022/11/14 00:20:33;;;;;;;;;;;;;;;8.19;81.97;101849.19;4860847;29;4770;-80
2022/11/14 00:23:00;;;;;;;;;;;;;;;8.20;82.62;101852.69;4865989;29;5246;-79
2022/11/14 00:25:27;;;;;;;;;;;;;;;8.09;82.66;101840.50;4863176;29;4848;-79
2022/11/14 00:27:53;;;;;;;;;;;;;;;8.17;82.20;101848.50;4861910;29;4839;-78
2022/11/14 00:30:20;;;;;;;;;;;;;;;7.68;82.74;101786.94;4847967;29;5193;-79
2022/11/14 00:32:46;;;;;;;;;;;;;;;8.06;82.65;101835.50;4866229;29;5406;-78
2022/11/14 00:35:13;;;;;;;;;;;;;;;8.06;82.82;101837.31;4851144;29;4874;-78
2022/11/14 00:37:39;;;;;;;;;;;;;;;8.05;83.04;101841.00;4867788;29;4853;-78
2022/11/14 00:40:06;;;;;;;;;;;;;;;8.03;82.94;101838.50;4867912;29;4850;-78
2022/11/14 00:42:33;;;;;;;;;;;;;;;8.05;83.08;101832.97;4866945;29;5127;-78
2022/11/14 00:44:59;;;;;;;;;;;;;;;8.04;83.06;101831.31;4849883;29;4826;-80
2022/11/14 00:47:26;;;;;;;;;;;;;;;8.03;83.15;101834.97;4865124;29;5345;-78
2022/11/14 00:49:53;;;;;;;;;;;;;;;8.04;82.80;101833.97;4851668;29;5387;-79
2022/11/14 00:52:19;;;;;;;;;;;;;;;8.00;83.09;101827.25;4851313;29;4926;-79
2022/11/14 00:54:46;;;;;;;;;;;;;;;8.01;83.00;101835.16;4867608;29;5067;-78
2022/11/14 00:57:12;;;;;;;;;;;;;;;8.04;83.03;101833.97;4866618;29;4873;-79
2022/11/14 00:59:39;;;;;;;;;;;;;;;8.03;83.07;101827.78;4866660;29;5247;-79
2022/11/14 01:02:05;;;;;;;;;;;;;;;8.10;82.63;101839.50;4851287;29;5305;-78
2022/11/14 01:04:32;;;;;;;;;;;;;;;8.04;82.62;101828.63;4865839;29;4936;-79
2022/11/14 01:06:58;;;;;;;;;;;;;;;8.03;83.08;101833.16;4865851;29;4899;-79
2022/11/14 01:09:25;;;;;;;;;;;;;;;7.99;82.87;101830.97;4868491;29;4832;-78
2022/11/14 01:11:51;;;;;;;;;;;;;;;7.99;83.19;101837.16;4863108;29;4732;-79
2022/11/14 01:14:18;;;;;;;;;;;;;;;8.08;82.83;101836.13;4864775;29;5028;-79
2022/11/14 01:16:44;;;;;;;;;;;;;;;8.00;83.20;101833.50;4851577;29;4798;-79
2022/11/14 01:19:11;;;;;;;;;;;;;;;8.02;82.82;101838.66;4851301;29;4870;-79
2022/11/14 01:21:38;;;;;;;;;;;;;;;7.99;83.08;101842.53;4865175;29;4904;-78
2022/11/14 01:24:04;;;;;;;;;;;;;;;8.05;82.72;101841.00;4865234;29;4972;-78
2022/11/14 01:26:31;;;;;;;;;;;;;;;8.05;82.79;101841.00;4867163;29;5209;-79
2022/11/14 01:28:57;;;;;;;;;;;;;;;8.02;83.04;101827.94;4862563;29;5228;-78
2022/11/14 01:31:24;;;;;;;;;;;;;;;7.99;83.17;101831.81;4850961;29;4985;-78
2022/11/14 01:33:50;;;;;;;;;;;;;;;8.09;83.01;101832.47;4862815;29;4828;-80
2022/11/14 01:36:17;;;;;;;;;;;;;;;8.12;82.24;101831.28;4868120;29;4922;-79
2022/11/14 01:38:43;;;;;;;;;;;;;;;8.14;82.44;101830.06;4865072;29;5458;-79
2022/11/14 01:41:10;;;;;;;;;;;;;;;8.00;83.02;101828.13;4866284;29;4876;-79
2022/11/14 01:43:36;;;;;;;;;;;;;;;8.01;82.89;101829.78;4862002;29;4937;-79
2022/11/14 01:46:03;;;;;;;;;;;;;;;7.99;82.92;101823.75;4848418;29;6327;-77
2022/11/14 01:48:29;;;;;;;;;;;;;;;7.95;83.28;101828.63;4849508;29;4932;-80
2022/11/14 01:50:56;;;;;;;;;;;;;;;8.03;82.86;101833.16;4864373;29;4971;-79
2022/11/14 01:53:23;;;;;;;;;;;;;;;8.00;82.58;101833.50;4865999;29;5215;-78
2022/11/14 01:55:49;;;;;;;;;;;;;;;8.07;82.73;101825.59;4870168;29;4801;-80
2022/11/14 01:58:16;;;;;;;;;;;;;;;8.04;82.83;101826.75;4861086;29;4903;-79
2022/11/14 02:00:42;;;;;;;;;;;;;;;8.02;82.60;101822.56;4869704;29;4980;-79
2022/11/14 02:03:08;;;;;;;;;;;;;;;8.00;83.06;101821.91;4865654;29;4896;-79
2022/11/14 02:05:35;;;;;;;;;;;;;;;8.01;82.95;101812.88;4866358;29;4683;-80
2022/11/14 02:08:02;;;;;;;;;;;;;;;7.99;82.99;101804.97;4848314;29;4862;-80
2022/11/14 02:10:28;;;;;;;;;;;;;;;8.04;82.99;101807.16;4869799;29;4916;-79
2022/11/14 02:12:55;;;;;;;;;;;;;;;7.98;82.94;101808.69;4865964;29;4765;-79
2022/11/14 02:15:21;;;;;;;;;;;;;;;7.99;82.95;101807.66;4863315;29;4784;-79
2022/11/14 02:17:48;;;;;;;;;;;;;;;8.07;82.66;101796.91;4862189;29;4873;-78
2022/11/14 02:20:14;;;;;;;;;;;;;;;8.01;82.95;101794.91;4863772;29;5322;-77
2022/11/14 02:22:42;;;;;;;;;;;;;;;7.95;82.94;101788.38;4853286;29;4940;-78
2022/11/14 02:25:08;;;;;;;;;;;;;;;8.05;82.75;101781.97;4862870;29;5319;-77
2022/11/14 02:27:34;;;;;;;;;;;;;;;8.09;82.62;101783.28;4853606;29;4856;-77
2022/11/14 02:30:01;;;;;;;;;;;;;;;7.96;83.14;101789.22;4846603;29;4828;-78
2022/11/14 02:32:28;;;;;;;;;;;;;;;7.94;83.20;101789.41;4858943;29;4768;-78
2022/11/14 02:34:54;;;;;;;;;;;;;;;7.96;83.08;101787.38;4850098;29;4775;-78
2022/11/14 02:37:20;;;;;;;;;;;;;;;8.07;82.44;101777.28;4863043;29;4697;-77
2022/11/14 02:39:47;;;;;;;;;;;;;;;7.99;82.92;101771.94;4864831;29;5299;-78
2022/11/14 02:42:14;;;;;;;;;;;;;;;7.98;83.04;101773.78;4863475;29;4755;-78
2022/11/14 02:44:40;;;;;;;;;;;;;;;7.97;82.91;101766.75;4845538;29;4888;-78
2022/11/14 02:47:07;;;;;;;;;;;;;;;7.94;82.95;101770.63;4843996;29;4806;-79
2022/11/14 02:49:33;;;;;;;;;;;;;;;7.93;82.96;101752.00;4849080;29;5057;-79
2022/11/14 02:52:00;;;;;;;;;;;;;;;7.96;83.12;101752.50;4849921;29;5263;-79
2022/11/14 02:54:27;;;;;;;;;;;;;;;7.97;82.74;101750.63;4862462;29;5218;-79
2022/11/14 02:56:53;;;;;;;;;;;;;;;8.01;82.66;101753.84;4846170;29;5112;-79
2022/11/14 02:59:20;;;;;;;;;;;;;;;7.95;82.71;101745.47;4868109;29;5240;-80
2022/11/14 03:01:46;;;;;;;;;;;;;;;8.04;82.35;101743.59;4863851;29;4950;-79
2022/11/14 03:04:13;;;;;;;;;;;;;;;8.02;82.40;101742.09;4850407;29;5408;-77
2022/11/14 03:06:40;;;;;;;;;;;;;;;7.95;82.78;101745.47;4858016;29;5450;-78
2022/11/14 03:09:06;;;;;;;;;;;;;;;7.96;83.13;101751.66;4862423;29;4927;-78
2022/11/14 03:11:33;;;;;;;;;;;;;;;7.95;82.98;101740.09;4856579;29;4836;-79
2022/11/14 03:14:00;;;;;;;;;;;;;;;7.92;82.85;101743.13;4837402;29;4900;-80
2022/11/14 03:16:26;;;;;;;;;;;;;;;7.95;82.78;101747.31;4851224;29;4926;-79
2022/11/14 03:18:53;;;;;;;;;;;;;;;7.97;82.77;101745.28;4848593;29;4854;-79
2022/11/14 03:21:19;;;;;;;;;;;;;;;7.95;82.55;101732.06;4855855;29;4990;-78
2022/11/14 03:23:46;;;;;;;;;;;;;;;7.93;82.81;101726.00;4847205;29;4975;-79
2022/11/14 03:26:12;;;;;;;;;;;;;;;8.00;82.74;101734.22;4853390;29;4815;-79
2022/11/14 03:28:39;;;;;;;;;;;;;;;8.01;82.65;101725.16;4847030;29;5528;-78
2022/11/14 03:31:05;;;;;;;;;;;;;;;7.94;83.07;101722.34;4850243;29;4820;-79
2022/11/14 03:33:32;;;;;;;;;;;;;;;7.92;83.19;101718.16;4834104;29;5327;-79
2022/11/14 03:35:58;;;;;;;;;;;;;;;7.92;83.01;101718.16;4853247;29;4838;-79
2022/11/14 03:38:25;;;;;;;;;;;;;;;7.93;83.01;101720.66;4857613;29;4772;-79
2022/11/14 03:40:51;;;;;;;;;;;;;;;7.94;82.72;101718.78;4832064;29;4908;-78
2022/11/14 03:43:18;;;;;;;;;;;;;;;7.92;82.95;101721.66;4855813;29;4777;-78
2022/11/14 03:45:44;;;;;;;;;;;;;;;7.90;83.10;101729.03;4852498;29;5864;-79
2022/11/14 03:48:11;;;;;;;;;;;;;;;7.93;82.61;101717.97;4831224;29;4800;-79
2022/11/14 03:50:38;;;;;;;;;;;;;;;8.03;82.30;101716.91;4849927;29;5623;-79
2022/11/14 03:53:04;;;;;;;;;;;;;;;7.96;82.90;101720.31;4854153;29;4914;-78
2022/11/14 03:55:31;;;;;;;;;;;;;;;7.96;82.83;101714.94;4861021;29;5350;-79
2022/11/14 03:57:57;;;;;;;;;;;;;;;8.08;82.36;101723.44;4834636;29;4880;-79
2022/11/14 04:00:24;;;;;;;;;;;;;;;7.95;82.92;101724.00;4837749;29;4973;-78
2022/11/14 04:02:50;;;;;;;;;;;;;;;7.94;82.99;101722.34;4849374;29;4855;-79
2022/11/14 04:05:17;;;;;;;;;;;;;;;7.91;83.06;101717.31;4854167;29;5327;-78
2022/11/14 04:07:43;;;;;;;;;;;;;;;7.87;83.01;101713.28;4856361;29;5528;-79
2022/11/14 04:10:10;;;;;;;;;;;;;;;7.49;82.92;101639.88;4837161;29;4947;-79
2022/11/14 04:12:36;;;;;;;;;;;;;;;8.03;82.71;101707.03;4853432;29;4904;-79
2022/11/14 04:15:03;;;;;;;;;;;;;;;7.95;82.92;101713.28;4844213;29;5178;-79
2022/11/14 04:17:32;;;;;;;;;;;;;;;7.97;82.87;101711.25;4855028;29;4827;-79
2022/11/14 04:19:58;;;;;;;;;;;;;;;7.99;82.59;101716.44;4837146;29;4797;-79
2022/11/14 04:22:25;;;;;;;;;;;;;;;7.95;82.86;101713.28;4858582;29;4925;-79
2022/11/14 04:24:52;;;;;;;;;;;;;;;7.90;83.12;101707.59;4847571;29;5392;-79
2022/11/14 04:27:18;;;;;;;;;;;;;;;7.96;82.68;101716.78;4861581;29;4815;-79
2022/11/14 04:29:45;;;;;;;;;;;;;;;7.91;82.67;101716.47;4866763;29;4973;-79
2022/11/14 04:32:11;;;;;;;;;;;;;;;7.95;82.39;101710.59;4848817;29;4806;-79
2022/11/14 04:34:38;;;;;;;;;;;;;;;7.93;82.52;101701.88;4856039;29;5165;-79
2022/11/14 04:37:04;;;;;;;;;;;;;;;7.91;82.96;101701.22;4848783;29;5092;-79
2022/11/14 04:39:31;;;;;;;;;;;;;;;7.92;82.75;101699.38;4847673;29;5073;-79
2022/11/14 04:41:58;;;;;;;;;;;;;;;7.94;82.58;101697.34;4858831;29;5060;-79
2022/11/14 04:44:24;;;;;;;;;;;;;;;7.93;83.02;101696.50;4839075;29;5016;-79
2022/11/14 04:46:51;;;;;;;;;;;;;;;8.00;82.72;101695.81;4853031;29;5052;-79
2022/11/14 04:49:18;;;;;;;;;;;;;;;7.90;82.91;101693.34;4835395;29;4827;-79
2022/11/14 04:51:44;;;;;;;;;;;;;;;7.89;82.95;101689.81;4835379;29;4908;-79
2022/11/14 04:54:11;;;;;;;;;;;;;;;7.88;82.91;101687.31;4864429;29;5340;-79
2022/11/14 04:56:37;;;;;;;;;;;;;;;7.94;82.97;101686.59;4860355;29;5376;-78
2022/11/14 04:59:04;;;;;;;;;;;;;;;7.93;82.71;101683.09;4839223;29;5066;-79
2022/11/14 05:01:30;;;;;;;;;;;;;;;7.91;82.84;101673.53;4853479;29;4692;-78
2022/11/14 05:03:57;;;;;;;;;;;;;;;7.96;82.61;101671.19;4854868;29;5040;-78
2022/11/14 05:06:23;;;;;;;;;;;;;;;7.97;82.76;101671.03;4836845;29;4993;-79
2022/11/14 05:08:50;;;;;;;;;;;;;;;7.93;82.80;101669.69;4855488;29;4906;-79
2022/11/14 05:11:16;;;;;;;;;;;;;;;7.95;82.56;101662.31;4849260;29;5140;-79
2022/11/14 05:13:43;;;;;;;;;;;;;;;7.97;82.43;101654.06;4855731;29;4756;-79
2022/11/14 05:16:10;;;;;;;;;;;;;;;7.93;82.51;101658.94;4835738;29;4852;-79
2022/11/14 05:18:36;;;;;;;;;;;;;;;7.67;82.52;101599.41;4862444;29;5017;-79
2022/11/14 05:21:03;;;;;;;;;;;;;;;7.97;82.76;101652.25;4853392;29;4923;-79
2022/11/14 05:23:29;;;;;;;;;;;;;;;7.87;82.55;101650.78;4856293;29;4825;-79
2022/11/14 05:25:56;;;;;;;;;;;;;;;7.95;82.56;101661.47;4856237;29;5096;-78
2022/11/14 05:28:22;;;;;;;;;;;;;;;7.97;82.73;101657.59;4855242;29;4813;-79
2022/11/14 05:30:49;;;;;;;;;;;;;;;7.89;83.00;101668.38;4854028;29;5063;-79
2022/11/14 05:33:16;;;;;;;;;;;;;;;7.89;82.95;101662.16;4855324;29;4917;-78
2022/11/14 05:35:42;;;;;;;;;;;;;;;7.87;82.81;101673.06;4848786;29;5425;-79
2022/11/14 05:38:09;;;;;;;;;;;;;;;7.93;82.97;101660.81;4854240;29;4810;-79
2022/11/14 05:40:35;;;;;;;;;;;;;;;7.94;82.82;101665.16;4841284;29;4701;-79
2022/11/14 05:43:02;;;;;;;;;;;;;;;7.89;83.00;101668.38;4861869;29;4839;-79
2022/11/14 05:45:28;;;;;;;;;;;;;;;7.95;82.68;101664.97;4854478;29;4688;-79
2022/11/14 05:47:55;;;;;;;;;;;;;;;7.91;82.95;101665.50;4859549;29;4726;-79
2022/11/14 05:50:22;;;;;;;;;;;;;;;7.88;83.04;101650.63;4873100;29;5149;-80
2022/11/14 05:52:48;;;;;;;;;;;;;;;7.85;82.78;101650.97;4874692;29;4980;-80
2022/11/14 05:55:15;;;;;;;;;;;;;;;7.86;82.86;101649.13;4859944;29;4790;-79
2022/11/14 05:57:42;;;;;;;;;;;;;;;7.89;82.60;101659.50;4874494;29;5199;-79
2022/11/14 06:00:08;;;;;;;;;;;;;;;7.84;83.11;101657.31;4874948;29;4750;-80
2022/11/14 06:02:35;;;;;;;;;;;;;;;7.96;82.51;101652.41;4872005;29;4647;-80
2022/11/14 06:05:01;;;;;;;;;;;;;;;7.87;82.59;101658.81;4858727;29;4494;-79
2022/11/14 06:07:28;;;;;;;;;;;;;;;7.89;82.77;101657.63;4860055;29;4555;-80
2022/11/14 06:09:54;;;;;;;;;;;;;;;7.87;83.06;101658.81;4875266;29;4738;-79
2022/11/14 06:12:21;;;;;;;;;;;;;;;7.85;83.11;101656.34;4869958;29;4583;-79
2022/11/14 06:14:47;;;;;;;;;;;;;;;7.86;82.57;101658.00;4855659;29;4641;-79
2022/11/14 06:17:14;;;;;;;;;;;;;;;7.87;82.92;101650.78;4871762;29;4508;-79
2022/11/14 06:19:40;;;;;;;;;;;;;;;7.87;82.93;101654.28;4874368;29;4668;-78
2022/11/14 06:22:07;;;;;;;;;;;;;;;7.85;82.75;101648.28;4858875;29;4546;-78
2022/11/14 06:24:34;;;;;;;;;;;;;;;7.91;82.82;101650.25;4874799;29;4680;-80
2022/11/14 06:27:00;;;;;;;;;;;;;;;7.91;82.78;101650.25;4861787;29;4693;-77
2022/11/14 06:29:28;;;;;;;;;;;;;;;7.90;82.85;101648.56;4865052;29;4580;-79
2022/11/14 06:31:54;;;;;;;;;;;;;;;7.94;82.54;101649.03;4856140;29;4753;-79
2022/11/14 06:34:21;;;;;;;;;;;;;;;7.89;82.76;101640.72;4863502;29;4574;-80
2022/11/14 06:36:47;;;;;;;;;;;;;;;7.84;83.13;101635.88;4860721;29;4924;-77
2022/11/14 06:39:14;;;;;;;;;;;;;;;7.89;82.91;101641.53;4861119;29;5153;-78
2022/11/14 06:41:40;;;;;;;;;;;;;;;7.99;82.31;101646.69;4862660;29;4788;-80
2022/11/14 06:44:07;;;;;;;;;;;;;;;7.44;82.51;101589.47;4844057;29;4685;-79
2022/11/14 06:46:34;;;;;;;;;;;;;;;7.84;82.78;101659.16;4847898;29;4631;-80
2022/11/14 06:49:00;;;;;;;;;;;;;;;7.84;82.94;101668.03;4853051;29;4026;-80
2022/11/14 06:51:27;;;;;;;;;;;;;;;7.96;82.49;101657.75;4864835;29;4776;-78
2022/11/14 06:53:53;;;;;;;;;;;;;;;7.87;82.53;101658.81;4838573;29;4931;-77
2022/11/14 06:56:21;;;;;;;;;;;;;;;7.86;82.97;101659.84;4864659;29;4671;-78
2022/11/14 06:58:48;;;;;;;;;;;;;;;7.82;83.02;101666.53;4836904;29;4609;-79
2022/11/14 07:01:14;;;;;;;;;;;;;;;7.90;82.68;101656.63;4858898;29;4575;-80
2022/11/14 07:03:41;;;;;;;;;;;;;;;7.86;82.69;101658.00;4859745;29;4852;-80
2022/11/14 07:06:07;;;;;;;;;;;;;;;7.93;82.71;101660.81;4863852;29;4890;-80
2022/11/14 07:08:34;;;;;;;;;;;;;;;7.93;82.38;101658.94;4862180;29;4593;-79
2022/11/14 07:11:00;;;;;;;;;;;;;;;7.86;83.00;101659.84;4844478;29;4553;-81
2022/11/14 07:13:27;;;;;;;;;;;;;;;7.94;82.54;101649.03;4864342;29;4580;-79
2022/11/14 07:15:54;;;;;;;;;;;;;;;7.83;82.92;101654.81;4861537;29;4590;-82
2022/11/14 07:18:20;;;;;;;;;;;;;;;7.95;82.55;101643.53;4845125;29;4538;-80
2022/11/14 07:20:47;;;;;;;;;;;;;;;7.94;82.68;101654.41;4861791;29;4624;-78
2022/11/14 07:23:13;;;;;;;;;;;;;;;7.87;82.77;101650.78;4844717;29;4647;-80
2022/11/14 07:25:40;;;;;;;;;;;;;;;7.87;82.88;101662.34;4846370;29;4582;-79
2022/11/14 07:28:06;;;;;;;;;;;;;;;7.83;82.96;101650.28;4874815;29;4621;-81
2022/11/14 07:30:33;;;;;;;;;;;;;;;7.87;82.96;101643.56;4872647;29;4556;-80
2022/11/14 07:32:59;;;;;;;;;;;;;;;7.96;82.49;101647.03;4860009;29;4607;-81
2022/11/14 07:35:26;;;;;;;;;;;;;;;7.89;82.54;101640.72;4862456;29;5234;-79
2022/11/14 07:37:52;;;;;;;;;;;;;;;7.85;82.55;101642.91;4856920;29;4499;-80
2022/11/14 07:40:19;;;;;;;;;;;;;;;7.89;82.47;101646.06;4850770;29;4656;-80
2022/11/14 07:42:45;;;;;;;;;;;;;;;7.94;82.42;101643.69;4873328;29;4574;-80
2022/11/14 07:45:12;;;;;;;;;;;;;;;7.99;81.91;101651.22;4878657;29;4709;-80
2022/11/14 07:47:39;;;;;;;;;;;;;;;7.86;82.37;101644.59;4857434;29;4644;-80
2022/11/14 07:50:05;;;;;;;;;;;;;;;7.93;82.55;101645.53;4876154;29;4718;-79
2022/11/14 07:52:32;;;;;;;;;;;;;;;7.86;82.71;101636.53;4873594;29;4559;-80
2022/11/14 07:54:58;;;;;;;;;;;;;;;7.87;82.45;101638.19;4872495;29;4656;-80
2022/11/14 07:57:25;;;;;;;;;;;;;;;7.81;83.04;101644.25;4875363;29;4589;-80
2022/11/14 07:59:52;;;;;;;;;;;;;;;7.97;82.05;101641.50;4879559;29;4511;-81
2022/11/14 08:02:18;;;;;;;;;;;;;;;7.87;82.52;101640.03;4877348;29;4519;-79
2022/11/14 08:04:45;;;;;;;;;;;;;;;7.85;82.65;101642.91;4867042;29;4697;-81
2022/11/14 08:07:11;;;;;;;;;;;;;;;7.88;82.56;101642.56;4862477;29;4497;-79
2022/11/14 08:09:38;;;;;;;;;;;;;;;7.94;82.58;101644.53;4875009;29;4954;-79
2022/11/14 08:12:04;;;;;;;;;;;;;;;7.85;82.39;101645.59;4874756;29;4595;-80
2022/11/14 08:14:31;;;;;;;;;;;;;;;7.84;82.85;101660.00;4871678;29;4520;-81
2022/11/14 08:16:57;;;;;;;;;;;;;;;7.81;83.08;101649.63;4873587;29;4546;-79
2022/11/14 08:19:24;;;;;;;;;;;;;;;7.81;82.59;101652.31;4872713;29;4531;-80
2022/11/14 08:21:51;;;;;;;;;;;;;;;7.86;82.67;101652.63;4872365;29;4579;-80
2022/11/14 08:24:17;;;;;;;;;;;;;;;7.92;82.33;101654.59;4874668;29;5172;-80
2022/11/14 08:26:44;;;;;;;;;;;;;;;7.89;82.31;101649.59;4848001;29;4622;-79
2022/11/14 08:29:10;;;;;;;;;;;;;;;7.83;82.57;101650.28;4865348;29;4587;-80
2022/11/14 08:31:37;;;;;;;;;;;;;;;7.84;82.89;101654.63;4866113;29;5091;-78
2022/11/14 08:34:03;;;;;;;;;;;;;;;7.92;82.54;101649.25;4849279;29;5027;-81
2022/11/14 08:36:30;;;;;;;;;;;;;;;7.95;82.38;101650.75;4850454;29;5329;-81
2022/11/14 08:38:56;;;;;;;;;;;;;;;7.89;82.28;101638.88;4860635;29;4571;-80
2022/11/14 08:41:23;;;;;;;;;;;;;;;7.88;82.49;101637.19;4863185;29;4548;-80
2022/11/14 08:43:49;;;;;;;;;;;;;;;7.87;82.49;101635.50;4849764;29;4622;-80
2022/11/14 08:46:16;;;;;;;;;;;;;;;7.80;83.05;101631.03;4852282;29;4618;-79
2022/11/14 08:48:43;;;;;;;;;;;;;;;7.92;82.33;101640.38;4865574;29;4626;-79
2022/11/14 08:51:09;;;;;;;;;;;;;;;7.88;82.34;101634.53;4864700;29;4582;-80
2022/11/14 08:53:36;;;;;;;;;;;;;;;7.41;82.83;101570.19;4849810;29;5139;-80
2022/11/14 08:56:02;;;;;;;;;;;;;;;7.82;82.47;101631.69;4858053;29;4598;-81
2022/11/14 08:58:30;;;;;;;;;;;;;;;7.91;82.17;101636.84;4873861;29;4384;-81
2022/11/14 09:00:56;;;;;;;;;;;;;;;7.83;82.89;101633.38;4871795;29;5038;-82
2022/11/14 09:03:23;;;;;;;;;;;;;;;7.86;82.68;101625.81;4872352;29;4633;-81
2022/11/14 09:05:50;;;;;;;;;;;;;;;7.85;82.70;101625.97;4865613;29;4577;-80
2022/11/14 09:08:16;;;;;;;;;;;;;;;7.84;82.32;101621.63;4848901;29;4735;-81
2022/11/14 09:10:43;;;;;;;;;;;;;;;7.80;83.00;101623.81;4865325;29;5102;-81
2022/11/14 09:13:10;;;;;;;;;;;;;;;7.80;82.70;101620.31;4859584;29;4536;-81
2022/11/14 09:15:37;;;;;;;;;;;;;;;7.85;82.96;101626.81;4864004;29;4527;-78
2022/11/14 09:18:03;;;;;;;;;;;;;;;7.96;82.38;101615.69;4867925;29;4479;-80
2022/11/14 09:20:30;;;;;;;;;;;;;;;7.87;82.72;101608.69;4864235;29;5184;-80
2022/11/14 09:22:56;;;;;;;;;;;;;;;7.95;82.44;101610.50;4863262;29;4586;-79
2022/11/14 09:25:25;;;;;;;;;;;;;;;7.91;82.18;101609.16;4872194;29;4673;-80
2022/11/14 09:27:51;;;;;;;;;;;;;;;7.90;82.06;101611.03;4877748;29;4585;-81
2022/11/14 09:30:18;;;;;;;;;;;;;;;7.85;82.79;101610.72;4867246;29;4833;-81
2022/11/14 09:32:44;;;;;;;;;;;;;;;7.84;82.74;101613.56;4863510;29;5015;-81
2022/11/14 09:35:11;;;;;;;;;;;;;;;7.84;82.68;101614.41;4871024;29;4564;-81
2022/11/14 09:37:38;;;;;;;;;;;;;;;7.82;82.53;101615.59;4864423;29;4515;-81
2022/11/14 09:40:04;;;;;;;;;;;;;;;7.91;82.26;101618.06;4861260;29;5008;-79
2022/11/14 09:42:31;;;;;;;;;;;;;;;7.89;82.72;101616.56;4859724;29;4785;-81
2022/11/14 09:44:57;;;;;;;;;;;;;;;7.85;82.33;101613.41;4846860;29;5099;-79
2022/11/14 09:47:24;;;;;;;;;;;;;;;7.89;82.56;101604.00;4846862;29;4588;-80
2022/11/14 09:49:50;;;;;;;;;;;;;;;7.82;82.50;101607.53;4860747;29;4483;-81
2022/11/14 09:52:17;;;;;;;;;;;;;;;7.84;82.62;101601.00;4847876;29;4568;-80
2022/11/14 09:54:43;;;;;;;;;;;;;;;7.96;82.27;101609.47;4862009;29;5158;-81
2022/11/14 09:57:10;;;;;;;;;;;;;;;8.04;81.44;101609.44;4858210;29;5158;-79
2022/11/14 09:59:37;;;;;;;;;;;;;;;7.94;82.15;101611.50;4868128;29;4832;-81
2022/11/14 10:02:03;;;;;;;;;;;;;;;7.82;82.58;101615.59;4855088;29;4722;-81
2022/11/14 10:04:30;;;;;;;;;;;;;;;7.85;82.72;101608.06;4849764;29;4952;-81
2022/11/14 10:06:56;;;;;;;;;;;;;;;7.91;82.24;101614.53;4850967;29;5044;-79
2022/11/14 10:09:25;;;;;;;;;;;;;;;7.81;82.89;101609.41;4848085;29;5096;-81
2022/11/14 10:11:52;;;;;;;;;;;;;;;7.78;82.77;101607.06;4852021;29;4581;-78
2022/11/14 10:14:18;;;;;;;;;;;;;;;7.92;82.19;101603.63;4866470;29;4523;-81
2022/11/14 10:16:45;;;;;;;;;;;;;;;7.85;82.73;101597.31;4847921;29;4780;-80
2022/11/14 10:19:11;;;;;;;;;;;;;;;7.89;82.48;101595.13;4866680;29;4615;-82
2022/11/14 10:21:38;;;;;;;;;;;;;;;7.90;82.60;101591.41;4873766;29;4507;-79
2022/11/14 10:24:04;;;;;;;;;;;;;;;7.92;82.40;101582.19;4852116;29;5152;-79
2022/11/14 10:26:31;;;;;;;;;;;;;;;7.86;82.72;101588.25;4866456;29;4500;-80
2022/11/14 10:28:57;;;;;;;;;;;;;;;7.85;82.49;101586.59;4866985;29;4401;-80
2022/11/14 10:31:24;;;;;;;;;;;;;;;7.85;82.75;101575.88;4864859;29;4605;-81
2022/11/14 10:33:51;;;;;;;;;;;;;;;7.97;81.94;101569.06;4863534;29;4532;-80
2022/11/14 10:36:18;;;;;;;;;;;;;;;7.93;82.00;101574.97;4867430;29;4679;-82
2022/11/14 10:38:44;;;;;;;;;;;;;;;7.92;82.20;101565.25;4854489;29;4474;-80
2022/11/14 10:41:11;;;;;;;;;;;;;;;7.84;82.46;101554.56;4871967;29;4674;-80
2022/11/14 10:43:37;;;;;;;;;;;;;;;7.83;82.87;101555.59;4878724;29;4644;-81
2022/11/14 10:46:04;;;;;;;;;;;;;;;7.86;82.65;101556.06;4875260;29;4527;-81
2022/11/14 10:48:31;;;;;;;;;;;;;;;7.81;82.88;101547.72;4858877;29;4476;-81
2022/11/14 10:50:57;;;;;;;;;;;;;;;7.82;82.79;101552.06;4863770;29;4459;-81
2022/11/14 10:53:24;;;;;;;;;;;;;;;7.82;82.90;101548.53;4858875;29;4388;-79
2022/11/14 10:55:50;;;;;;;;;;;;;;;7.83;82.91;101552.91;4861259;29;4706;-81
2022/11/14 10:58:17;;;;;;;;;;;;;;;7.82;82.94;101553.91;4868203;29;4460;-81
2022/11/14 11:00:44;;;;;;;;;;;;;;;7.86;82.73;101549.88;4866162;29;4884;-78
2022/11/14 11:03:10;;;;;;;;;;;;;;;7.85;82.68;101543.69;4869018;29;4416;-82
2022/11/14 11:05:37;;;;;;;;;;;;;;;7.81;82.63;101545.03;4874282;29;4546;-82
2022/11/14 11:13:32;;;;;;;;;;;;;;;7.87;82.34;101538.94;4854936;29;4040;-78
2022/11/14 11:15:59;;;;;;;;;;;;;;;7.81;82.81;101526.25;4872101;29;4398;-79
2022/11/14 11:18:26;;;;;;;;;;;;;;;7.86;82.53;101529.25;4855999;29;4162;-80
2022/11/14 11:20:52;;;;;;;;;;;;;;;7.85;82.45;101516.84;4856513;29;4582;-81
2022/11/14 11:23:19;;;;;;;;;;;;;;;7.81;82.85;101522.75;4873523;29;4654;-81
2022/11/14 11:25:46;;;;;;;;;;;;;;;7.79;82.77;101524.75;4868888;29;4731;-82
2022/11/14 11:28:12;;;;;;;;;;;;;;;7.81;82.79;101514.69;4858722;29;4763;-81
2022/11/14 11:30:39;;;;;;;;;;;;;;;7.81;82.63;101510.16;4875230;29;4697;-81
2022/11/14 11:33:05;;;;;;;;;;;;;;;7.80;82.92;101521.09;4870968;29;4688;-81
2022/11/14 11:35:32;;;;;;;;;;;;;;;7.79;83.16;101522.06;4871760;29;4554;-80
2022/11/14 11:38:01;;;;;;;;;;;;;;;7.96;82.13;101515.59;4877461;29;4674;-81
2022/11/14 11:40:28;;;;;;;;;;;;;;;7.93;82.42;101514.09;4872769;29;4500;-81
2022/11/14 11:42:54;;;;;;;;;;;;;;;7.82;82.62;101516.34;4856718;29;4295;-81
2022/11/14 11:45:21;;;;;;;;;;;;;;;7.80;83.03;101511.19;4873780;29;4633;-82
2022/11/14 11:47:47;;;;;;;;;;;;;;;7.79;82.74;101503.31;4867472;29;4430;-81
2022/11/14 11:50:14;;;;;;;;;;;;;;;7.81;82.68;101506.66;4872830;29;4322;-80
2022/11/14 11:52:40;;;;;;;;;;;;;;;7.81;83.04;101502.13;4857439;29;4399;-80
2022/11/14 11:55:07;;;;;;;;;;;;;;;7.80;82.71;101503.13;4875466;29;4310;-81
2022/11/14 11:57:33;;;;;;;;;;;;;;;7.84;82.99;101503.59;4870003;29;4456;-80
2022/11/14 12:00:00;;;;;;;;;;;;;;;7.80;82.76;101496.94;4874882;29;4473;-81
2022/11/14 12:02:26;;;;;;;;;;;;;;;7.80;82.82;101502.31;4853429;29;4473;-81
2022/11/14 12:04:53;;;;;;;;;;;;;;;7.79;83.15;101493.41;4866399;29;4659;-81
2022/11/14 12:07:19;;;;;;;;;;;;;;;7.79;82.74;101488.03;4856485;29;4637;-81
2022/11/14 12:09:46;;;;;;;;;;;;;;;7.79;82.92;101490.72;4867589;29;4323;-82
2022/11/14 12:12:12;;;;;;;;;;;;;;;7.80;82.79;101488.91;4867817;29;4564;-81
2022/11/14 12:14:39;;;;;;;;;;;;;;;7.85;83.16;101481.13;4873511;29;4461;-81
2022/11/14 12:17:05;;;;;;;;;;;;;;;7.82;83.01;101481.50;4865445;29;4750;-82
2022/11/14 12:19:32;;;;;;;;;;;;;;;7.81;82.72;101486.03;4854138;29;4413;-80
2022/11/14 12:21:59;;;;;;;;;;;;;;;7.81;82.86;101482.50;4853876;29;4631;-81
2022/11/14 12:24:25;;;;;;;;;;;;;;;7.80;83.04;101483.53;4851871;29;4693;-81
2022/11/14 12:26:52;;;;;;;;;;;;;;;7.80;82.80;101476.31;4866645;29;4564;-81
2022/11/14 12:29:19;;;;;;;;;;;;;;;7.82;83.26;101479.63;4858937;29;4787;-80
2022/11/14 12:31:45;;;;;;;;;;;;;;;7.81;82.96;101482.50;4872740;29;4596;-81
2022/11/14 12:34:12;;;;;;;;;;;;;;;7.95;82.55;101479.06;4868594;29;4616;-81
2022/11/14 12:36:38;;;;;;;;;;;;;;;7.87;82.84;101482.63;4865076;29;4808;-81
2022/11/14 12:39:05;;;;;;;;;;;;;;;7.94;82.55;101470.19;4867828;29;4722;-80
2022/11/14 12:41:31;;;;;;;;;;;;;;;7.85;82.90;101470.41;4865068;29;4732;-81
2022/11/14 12:43:58;;;;;;;;;;;;;;;7.82;83.17;101468.91;4861639;29;4744;-78
2022/11/14 12:46:24;;;;;;;;;;;;;;;7.83;83.04;101464.41;4865534;29;4819;-81
2022/11/14 12:48:51;;;;;;;;;;;;;;;7.84;82.58;101468.75;4850618;29;4824;-81
2022/11/14 12:51:17;;;;;;;;;;;;;;;7.86;82.71;101450.63;4871531;29;5204;-81
2022/11/14 12:53:44;;;;;;;;;;;;;;;7.89;82.99;101451.09;4853351;29;4838;-81
2022/11/14 12:56:10;;;;;;;;;;;;;;;7.86;82.81;101459.50;4860829;29;4796;-81
2022/11/14 12:58:37;;;;;;;;;;;;;;;7.86;82.77;101454.16;4878151;29;4539;-82